Time;durP1;ratioP1;P1;durP2;ratioP2;P2;SDS_P1;SDS_P2;PMS_P1;PMS_P2;Temp;Humidity;BMP_temperature;BMP_pressure;BME280_temperature;BME280_humidity;BME280_pressure;Samples;Min_cycle;Max_cycle;Signal;HPM_P1;HPM_P2
2022/09/04 00:02:17;;;;;;;2.78;1.42;;;17.00;87.70;;;;;;5090454;28;20082;-81
2022/09/04 00:04:48;;;;;;;3.63;1.60;;;17.00;87.50;;;;;;5107548;28;20039;-80
2022/09/04 00:07:32;;;;;;;3.55;1.58;;;16.90;87.40;;;;;;5090993;28;20070;-81
2022/09/04 00:10:12;;;;;;;4.30;1.52;;;17.00;87.40;;;;;;5112518;28;20675;-82
2022/09/04 00:13:00;;;;;;;4.55;1.60;;;16.90;87.30;;;;;;5106144;28;20035;-80
2022/09/04 00:15:33;;;;;;;3.33;1.88;;;16.90;87.70;;;;;;5112809;28;20051;-80
2022/09/04 00:18:05;;;;;;;2.65;1.38;;;16.90;87.20;;;;;;5111582;28;20039;-80
2022/09/04 00:20:41;;;;;;;5.47;1.60;;;16.90;87.90;;;;;;5085757;28;20378;-80
2022/09/04 00:23:18;;;;;;;3.75;1.48;;;16.90;87.30;;;;;;5088460;28;20044;-82
2022/09/04 00:25:59;;;;;;;3.70;1.40;;;16.80;87.50;;;;;;5104713;28;20039;-80
2022/09/04 00:28:33;;;;;;;5.72;1.83;;;16.80;87.40;;;;;;5105378;28;20052;-81
2022/09/04 00:31:28;;;;;;;2.85;1.73;;;16.80;87.50;;;;;;5105882;28;20039;-81
2022/09/04 00:34:03;;;;;;;;;;;16.80;87.60;;;;;;5101233;28;20043;-81
2022/09/04 00:36:29;;;;;;;3.30;1.80;;;16.70;87.60;;;;;;5111007;28;19920;-82
2022/09/04 00:39:01;;;;;;;3.38;1.48;;;16.70;87.40;;;;;;5105832;28;20067;-79
2022/09/04 00:41:58;;;;;;;5.50;1.50;;;16.60;87.60;;;;;;5111100;28;20126;-81
2022/09/04 00:44:42;;;;;;;3.35;1.38;;;16.60;87.80;;;;;;5091556;28;20104;-80
2022/09/04 00:47:39;;;;;;;2.75;1.65;;;16.60;87.70;;;;;;5109198;28;20044;-80
2022/09/04 00:50:06;;;;;;;2.92;1.60;;;16.60;88.10;;;;;;5119763;27;20075;-81
2022/09/04 00:52:44;;;;;;;3.05;1.80;;;16.50;87.80;;;;;;5107270;28;20092;-81
2022/09/04 00:55:22;;;;;;;3.88;1.70;;;16.50;87.90;;;;;;5107535;28;20043;-82
2022/09/04 00:58:22;;;;;;;3.45;1.63;;;16.50;88.00;;;;;;5103339;28;20135;-80
2022/09/04 01:00:48;;;;;;;2.85;1.85;;;16.50;88.20;;;;;;5105072;28;20637;-81
2022/09/04 01:03:30;;;;;;;3.20;1.70;;;16.40;88.10;;;;;;5110192;28;20114;-80
2022/09/04 01:06:14;;;;;;;5.20;2.20;;;16.40;88.20;;;;;;5107248;28;20047;-80
2022/09/04 01:09:10;;;;;;;5.10;2.00;;;16.40;88.40;;;;;;5105740;28;20039;-81
2022/09/04 01:11:51;;;;;;;3.92;1.80;;;16.40;88.40;;;;;;5110002;28;20053;-82
2022/09/04 01:14:32;;;;;;;4.93;1.83;;;16.30;88.40;;;;;;5104769;28;20036;-80
2022/09/04 01:17:24;;;;;;;4.60;1.75;;;16.30;88.50;;;;;;5086395;28;20042;-82
2022/09/04 01:20:29;;;;;;;4.20;1.70;;;16.30;88.70;;;;;;5102284;28;20065;-81
2022/09/04 01:22:57;;;;;;;2.97;1.67;;;16.30;89.10;;;;;;5075633;28;20502;-81
2022/09/04 01:25:48;;;;;;;2.88;1.75;;;16.20;89.40;;;;;;5106530;28;20401;-82
2022/09/04 01:28:26;;;;;;;3.40;1.73;;;16.20;89.00;;;;;;5102109;28;20549;-82
2022/09/04 01:31:22;;;;;;;6.13;1.60;;;16.10;89.10;;;;;;5088958;28;20143;-82
2022/09/04 01:34:01;;;;;;;2.83;1.60;;;16.10;89.40;;;;;;5101914;28;20027;-82
2022/09/04 01:36:54;;;;;;;4.45;1.90;;;16.10;89.40;;;;;;5104569;28;20402;-81
2022/09/04 01:39:24;;;;;;;4.78;2.03;;;16.10;89.70;;;;;;5084719;28;20123;-82
2022/09/04 01:42:02;;;;;;;2.65;1.70;;;16.00;89.80;;;;;;5084041;28;20062;-81
2022/09/04 01:44:29;;;;;;;5.53;1.83;;;16.00;89.90;;;;;;5109761;28;20096;-80
2022/09/04 01:47:19;;;;;;;4.03;1.90;;;15.90;90.00;;;;;;5109337;28;20050;-82
2022/09/04 01:49:57;;;;;;;3.85;1.80;;;15.90;90.30;;;;;;5103309;28;20047;-83
2022/09/04 01:52:46;;;;;;;2.75;1.67;;;15.90;90.20;;;;;;5095051;28;20040;-83
2022/09/04 01:55:43;;;;;;;3.47;2.08;;;15.80;90.30;;;;;;5108092;28;20043;-80
2022/09/04 01:58:17;;;;;;;4.25;1.88;;;15.80;90.30;;;;;;5105031;28;20038;-83
2022/09/04 02:00:59;;;;;;;4.40;1.80;;;15.80;90.30;;;;;;5083605;28;20174;-83
2022/09/04 02:04:20;;;;;;;5.05;1.98;;;15.80;90.50;;;;;;5090214;28;20130;-81
2022/09/04 02:06:50;;;;;;;3.75;2.05;;;15.70;90.60;;;;;;5062292;28;20523;-83
2022/09/04 02:09:45;;;;;;;5.47;1.70;;;15.80;90.40;;;;;;5084177;28;20050;-82
2022/09/04 02:12:49;;;;;;;4.03;2.00;;;15.80;90.60;;;;;;5096395;28;20036;-81
2022/09/04 02:15:36;;;;;;;;;;;15.80;90.80;;;;;;5100437;28;20036;-82
2022/09/04 02:18:23;;;;;;;3.50;1.90;;;15.80;91.00;;;;;;5100040;28;19920;-82
2022/09/04 02:21:01;;;;;;;2.78;1.90;;;15.70;90.70;;;;;;5102860;28;20327;-80
2022/09/04 02:23:54;;;;;;;2.90;2.00;;;15.70;90.80;;;;;;5105753;28;20114;-82
2022/09/04 02:26:29;;;;;;;4.93;1.88;;;15.60;90.80;;;;;;5100453;28;20044;-81
2022/09/04 02:28:54;;;;;;;3.38;2.10;;;15.60;91.00;;;;;;5108096;28;20040;-80
2022/09/04 02:31:39;;;;;;;4.18;2.05;;;15.50;91.00;;;;;;5102090;28;20036;-81
2022/09/04 02:34:28;;;;;;;2.80;1.90;;;15.50;91.20;;;;;;5110516;28;20040;-82
2022/09/04 02:37:12;;;;;;;5.45;2.10;;;15.40;91.30;;;;;;5121552;28;20389;-81
2022/09/04 02:40:02;;;;;;;4.32;1.95;;;15.40;91.40;;;;;;5102377;28;20051;-83
2022/09/04 02:42:40;;;;;;;4.68;2.20;;;15.40;91.60;;;;;;5106030;28;20032;-81
2022/09/04 02:45:28;;;;;;;4.90;2.03;;;15.30;91.50;;;;;;5103359;28;20134;-82
2022/09/04 02:48:13;;;;;;;5.00;2.20;;;15.30;91.70;;;;;;5099443;28;20050;-82
2022/09/04 02:50:56;;;;;;;3.17;1.77;;;15.30;91.90;;;;;;5101594;28;20040;-82
2022/09/04 02:53:39;;;;;;;3.63;2.22;;;15.20;91.80;;;;;;5107300;28;20061;-81
2022/09/04 02:56:43;;;;;;;3.53;2.30;;;15.20;91.80;;;;;;5105624;28;20073;-80
2022/09/04 02:59:30;;;;;;;2.88;1.83;;;15.10;91.90;;;;;;5082312;28;20097;-80
2022/09/04 03:01:59;;;;;;;7.05;2.30;;;15.10;92.20;;;;;;5104486;28;20035;-81
2022/09/04 03:04:48;;;;;;;3.33;2.03;;;15.00;92.00;;;;;;5103663;28;20043;-82
2022/09/04 03:07:35;;;;;;;4.45;1.92;;;15.00;92.30;;;;;;5083137;28;20506;-81
2022/09/04 03:10:15;;;;;;;5.18;2.78;;;14.90;92.30;;;;;;5105937;28;20438;-82
2022/09/04 03:12:59;;;;;;;4.25;2.40;;;14.90;92.30;;;;;;5113364;28;20036;-82
2022/09/04 03:15:37;;;;;;;5.05;2.10;;;14.90;92.30;;;;;;5105320;28;20054;-81
2022/09/04 03:18:12;;;;;;;3.80;2.00;;;14.90;92.40;;;;;;5109782;28;20036;-80
2022/09/04 03:20:49;;;;;;;4.88;2.30;;;14.80;92.50;;;;;;5103037;28;20036;-81
2022/09/04 03:23:22;;;;;;;4.15;2.00;;;14.80;92.60;;;;;;5105787;28;20122;-82
2022/09/04 03:25:56;;;;;;;4.20;1.90;;;14.80;92.70;;;;;;5109532;28;20397;-81
2022/09/04 03:28:39;;;;;;;;;;;14.80;92.70;;;;;;5112359;28;20126;-81
2022/09/04 03:31:28;;;;;;;4.75;1.95;;;14.70;92.80;;;;;;5105172;28;19920;-83
2022/09/04 03:34:18;;;;;;;5.30;2.33;;;14.80;93.00;;;;;;5096657;28;20031;-81
2022/09/04 03:37:00;;;;;;;3.58;2.53;;;14.70;92.80;;;;;;5104242;28;20133;-82
2022/09/04 03:39:45;;;;;;;3.30;2.00;;;14.70;92.80;;;;;;5102329;28;20087;-83
2022/09/04 03:42:22;;;;;;;2.72;2.22;;;14.70;93.10;;;;;;5100301;28;20039;-82
2022/09/04 03:45:15;;;;;;;3.00;2.10;;;14.60;93.00;;;;;;5104174;28;20035;-82
2022/09/04 03:48:08;;;;;;;4.90;2.30;;;14.60;93.20;;;;;;5095229;28;20031;-81
2022/09/04 03:50:55;;;;;;;5.15;2.22;;;14.60;93.20;;;;;;5110045;28;20040;-82
2022/09/04 03:53:37;;;;;;;3.58;2.33;;;14.60;93.20;;;;;;5100040;28;20501;-81
2022/09/04 03:56:28;;;;;;;4.40;2.30;;;14.50;93.30;;;;;;5110031;28;20039;-82
2022/09/04 03:59:00;;;;;;;3.33;2.30;;;14.50;93.30;;;;;;5102466;28;20033;-82
2022/09/04 04:01:47;;;;;;;4.40;2.33;;;14.50;93.30;;;;;;5105044;28;20043;-82
2022/09/04 04:04:36;;;;;;;3.75;2.13;;;14.50;93.60;;;;;;5107042;28;20542;-82
2022/09/04 04:07:29;;;;;;;4.47;2.40;;;14.40;93.70;;;;;;5099207;28;20505;-82
2022/09/04 04:10:07;;;;;;;5.50;2.40;;;14.40;93.70;;;;;;5086759;28;20489;-83
2022/09/04 04:12:51;;;;;;;4.50;2.28;;;14.30;94.00;;;;;;5111981;28;20051;-82
2022/09/04 04:15:31;;;;;;;5.32;2.53;;;14.30;94.10;;;;;;5106025;28;20040;-81
2022/09/04 04:18:16;;;;;;;2.95;2.20;;;14.30;94.10;;;;;;5117540;27;20040;-81
2022/09/04 04:21:03;;;;;;;3.45;2.50;;;14.30;94.20;;;;;;5091656;28;20044;-82
2022/09/04 04:23:55;;;;;;;5.75;2.75;;;14.30;94.10;;;;;;5092010;28;20503;-81
2022/09/04 04:27:06;;;;;;;5.57;2.40;;;14.20;94.20;;;;;;5106548;28;20048;-83
2022/09/04 04:29:58;;;;;;;4.93;2.65;;;14.30;94.50;;;;;;5087117;28;20101;-81
2022/09/04 04:32:58;;;;;;;4.05;2.40;;;14.30;94.40;;;;;;5103912;28;20072;-82
2022/09/04 04:35:48;;;;;;;4.20;2.60;;;14.30;94.20;;;;;;5100273;28;20039;-81
2022/09/04 04:38:19;;;;;;;4.47;2.80;;;14.30;94.20;;;;;;5104939;28;20035;-81
2022/09/04 04:41:03;;;;;;;3.05;2.30;;;14.30;94.20;;;;;;5082789;28;20036;-81
2022/09/04 04:43:35;;;;;;;2.50;2.05;;;14.40;94.40;;;;;;5107205;28;20043;-81
2022/09/04 04:46:19;;;;;;;5.57;2.65;;;14.40;94.40;;;;;;5105479;28;20048;-81
2022/09/04 04:49:12;;;;;;;2.97;2.00;;;14.40;94.50;;;;;;5102504;28;20043;-82
2022/09/04 04:51:48;;;;;;;4.55;2.25;;;14.40;94.50;;;;;;5096280;28;20036;-82
2022/09/04 04:54:39;;;;;;;6.07;2.40;;;14.40;94.40;;;;;;5105733;28;20482;-83
2022/09/04 04:57:25;;;;;;;6.95;2.78;;;14.40;94.50;;;;;;5087966;28;20070;-83
2022/09/04 05:00:17;;;;;;;2.80;2.20;;;14.30;94.70;;;;;;5103666;28;20421;-82
2022/09/04 05:03:03;;;;;;;6.63;2.38;;;14.30;94.80;;;;;;5102698;28;20032;-82
2022/09/04 05:06:02;;;;;;;6.57;2.67;;;14.30;94.90;;;;;;5105602;28;20070;-82
2022/09/04 05:08:41;;;;;;;3.13;2.20;;;14.30;95.00;;;;;;5106663;28;20071;-82
2022/09/04 05:11:21;;;;;;;5.28;2.70;;;14.30;94.70;;;;;;5099606;28;20132;-81
2022/09/04 05:14:08;;;;;;;6.72;2.60;;;14.30;94.70;;;;;;5100421;28;20028;-81
2022/09/04 05:17:06;;;;;;;4.03;2.67;;;14.30;94.80;;;;;;5107143;28;20040;-81
2022/09/04 05:19:40;;;;;;;4.65;2.75;;;14.30;94.90;;;;;;5090845;28;20515;-83
2022/09/04 05:22:21;;;;;;;;;;;14.30;94.80;;;;;;5102676;28;20051;-81
2022/09/04 05:25:05;;;;;;;6.75;2.70;;;14.40;95.10;;;;;;5100271;28;19919;-81
2022/09/04 05:27:49;;;;;;;6.10;2.55;;;14.40;94.80;;;;;;5105540;28;20409;-79
2022/09/04 05:30:38;;;;;;;4.72;2.40;;;14.40;94.90;;;;;;5105217;28;20421;-82
2022/09/04 05:33:16;;;;;;;6.95;2.45;;;14.50;94.80;;;;;;5105209;28;20062;-82
2022/09/04 05:35:52;;;;;;;2.72;2.10;;;14.60;94.90;;;;;;5107966;28;20485;-82
2022/09/04 05:38:56;;;;;;;3.50;2.60;;;14.70;94.90;;;;;;5106371;28;20040;-82
2022/09/04 05:41:55;;;;;;;3.95;2.78;;;14.80;95.10;;;;;;5106439;28;20133;-80
2022/09/04 05:44:23;;;;;;;4.95;2.70;;;14.90;95.00;;;;;;5094656;28;20070;-83
2022/09/04 05:46:55;;;;;;;5.07;2.60;;;15.00;94.90;;;;;;5110155;28;20035;-80
2022/09/04 05:49:45;;;;;;;3.33;2.65;;;15.00;94.90;;;;;;5110966;28;20524;-81
2022/09/04 05:52:21;;;;;;;3.58;2.40;;;15.10;95.00;;;;;;5106904;28;20110;-81
2022/09/04 05:55:07;;;;;;;3.72;2.50;;;15.20;94.90;;;;;;5103986;28;20420;-78
2022/09/04 05:58:01;;;;;;;4.32;2.60;;;15.20;95.00;;;;;;5107661;28;20040;-81
2022/09/04 06:00:47;;;;;;;4.50;2.60;;;15.30;95.10;;;;;;5097860;28;20040;-81
2022/09/04 06:03:44;;;;;;;3.50;2.67;;;15.30;95.00;;;;;;5091801;28;20085;-81
2022/09/04 06:06:20;;;;;;;5.30;2.70;;;15.20;95.00;;;;;;5086600;28;20040;-82
2022/09/04 06:09:04;;;;;;;3.78;2.40;;;15.20;95.10;;;;;;5094650;28;20039;-82
2022/09/04 06:11:57;;;;;;;3.75;2.58;;;15.30;95.40;;;;;;5094400;28;20159;-80
2022/09/04 06:14:41;;;;;;;6.22;2.53;;;15.30;95.40;;;;;;5103067;28;20077;-82
2022/09/04 06:17:35;;;;;;;4.22;2.67;;;15.40;95.40;;;;;;5107076;28;20071;-81
2022/09/04 06:20:32;;;;;;;4.27;2.40;;;15.50;95.50;;;;;;5107961;28;20031;-81
2022/09/04 06:23:27;;;;;;;4.00;2.78;;;15.50;95.40;;;;;;5102731;28;20027;-80
2022/09/04 06:26:20;;;;;;;8.40;3.00;;;15.60;95.40;;;;;;5104263;28;20028;-81
2022/09/04 06:28:48;;;;;;;3.80;2.72;;;15.70;95.40;;;;;;5100068;28;20469;-79
2022/09/04 06:31:20;;;;;;;5.43;2.80;;;15.90;95.30;;;;;;5111060;28;20497;-82
2022/09/04 06:34:04;;;;;;;5.28;2.70;;;15.90;95.20;;;;;;5104843;28;20059;-81
2022/09/04 06:36:53;;;;;;;;;;;16.00;95.10;;;;;;5113108;28;20107;-82
2022/09/04 06:39:38;;;;;;;5.00;2.80;;;16.00;95.20;;;;;;5099044;28;19951;-80
2022/09/04 06:42:20;;;;;;;3.75;2.78;;;16.00;95.10;;;;;;5098377;28;20409;-79
2022/09/04 06:45:00;;;;;;;4.78;2.67;;;16.10;95.00;;;;;;5093114;28;20039;-80
2022/09/04 06:47:48;;;;;;;4.97;2.83;;;16.20;95.00;;;;;;5110299;28;20501;-78
2022/09/04 06:50:21;;;;;;;3.33;2.60;;;16.30;95.00;;;;;;5108411;28;20035;-80
2022/09/04 06:53:08;;;;;;;4.68;2.85;;;16.40;94.90;;;;;;5115116;28;20497;-81
2022/09/04 06:56:06;;;;;;;4.90;2.80;;;16.50;94.90;;;;;;5115524;28;20044;-80
2022/09/04 06:58:52;;;;;;;4.20;2.60;;;16.70;95.00;;;;;;5116055;28;20050;-81
2022/09/04 07:01:59;;;;;;;5.68;2.63;;;16.70;94.80;;;;;;5116294;28;20532;-79
2022/09/04 07:05:03;;;;;;;3.50;2.70;;;16.90;95.00;;;;;;5108000;28;20040;-78
2022/09/04 07:07:36;;;;;;;2.92;2.35;;;17.10;94.60;;;;;;5095428;28;20382;-81
2022/09/04 07:10:13;;;;;;;5.10;2.78;;;17.20;94.40;;;;;;5112136;28;20043;-81
2022/09/04 07:12:54;;;;;;;4.78;2.60;;;17.30;94.20;;;;;;5098551;28;20099;-82
2022/09/04 07:15:45;;;;;;;4.60;2.63;;;17.40;94.10;;;;;;5094907;28;20032;-82
2022/09/04 07:18:22;;;;;;;3.92;2.60;;;17.50;94.00;;;;;;5112466;28;20035;-81
2022/09/04 07:20:59;;;;;;;4.25;2.58;;;17.60;93.90;;;;;;5107478;28;20464;-78
2022/09/04 07:23:34;;;;;;;4.82;3.00;;;17.80;93.80;;;;;;5104881;28;20040;-80
2022/09/04 07:26:09;;;;;;;4.25;2.33;;;17.90;93.60;;;;;;5116688;28;20417;-81
2022/09/04 07:28:55;;;;;;;4.30;2.50;;;18.00;93.40;;;;;;5114155;28;20376;-81
2022/09/04 07:31:38;;;;;;;5.80;2.35;;;18.10;93.30;;;;;;5108689;28;20040;-80
2022/09/04 07:34:36;;;;;;;5.32;2.58;;;18.20;93.10;;;;;;5102877;28;20035;-77
2022/09/04 07:37:35;;;;;;;5.60;2.28;;;18.40;93.10;;;;;;5105331;28;20059;-81
2022/09/04 07:40:18;;;;;;;3.97;2.55;;;18.50;92.90;;;;;;5106129;28;20040;-80
2022/09/04 07:43:16;;;;;;;4.43;2.40;;;18.60;92.70;;;;;;5110466;28;21800;-81
2022/09/04 07:45:49;;;;;;;6.40;2.80;;;18.70;92.80;;;;;;5100065;28;20685;-79
2022/09/04 07:48:23;;;;;;;;;;;18.90;92.70;;;;;;5106933;28;20063;-81
2022/09/04 07:51:03;;;;;;;4.63;2.60;;;19.00;92.30;;;;;;5102156;28;19924;-80
2022/09/04 07:53:41;;;;;;;5.55;2.70;;;19.10;92.60;;;;;;5104400;28;20044;-81
2022/09/04 07:56:34;;;;;;;4.63;2.33;;;19.10;92.50;;;;;;5108322;28;20489;-80
2022/09/04 07:59:26;;;;;;;5.07;2.50;;;19.30;92.30;;;;;;5097215;28;20039;-80
2022/09/04 08:01:57;;;;;;;4.55;2.42;;;19.30;92.40;;;;;;5096371;28;20693;-80
2022/09/04 08:04:45;;;;;;;3.67;2.92;;;19.40;92.30;;;;;;5094971;28;20433;-80
2022/09/04 08:07:19;;;;;;;6.38;2.58;;;19.50;92.20;;;;;;5078714;28;20055;-83
2022/09/04 08:10:23;;;;;;;5.50;2.55;;;19.60;92.20;;;;;;5106544;28;20038;-81
2022/09/04 08:13:08;;;;;;;4.50;2.78;;;19.70;92.10;;;;;;5097090;28;20411;-81
2022/09/04 08:15:51;;;;;;;5.07;2.50;;;19.80;92.10;;;;;;5113128;28;20039;-79
2022/09/04 08:18:36;;;;;;;4.43;2.67;;;19.90;92.20;;;;;;5092096;28;20032;-79
2022/09/04 08:21:19;;;;;;;4.93;2.83;;;20.00;92.10;;;;;;5091110;28;20055;-79
2022/09/04 08:23:51;;;;;;;5.65;2.58;;;20.10;92.00;;;;;;5108329;28;20100;-81
2022/09/04 08:26:41;;;;;;;8.27;2.90;;;20.20;91.70;;;;;;5109328;28;20054;-81
2022/09/04 08:29:34;;;;;;;4.50;2.67;;;20.30;92.00;;;;;;5088948;28;20051;-81
2022/09/04 08:32:20;;;;;;;4.05;2.45;;;20.40;91.90;;;;;;5105692;28;20062;-79
2022/09/04 08:34:58;;;;;;;3.47;2.40;;;20.50;91.80;;;;;;5119460;27;20032;-80
2022/09/04 08:38:08;;;;;;;5.70;2.42;;;20.70;91.90;;;;;;5087130;28;20085;-81
2022/09/04 08:40:52;;;;;;;4.90;2.70;;;20.80;91.80;;;;;;5088249;28;20172;-82
2022/09/04 08:43:36;;;;;;;3.47;2.28;;;20.90;91.60;;;;;;5099534;28;20031;-81
2022/09/04 08:46:28;;;;;;;7.22;2.63;;;21.00;91.20;;;;;;5101051;28;20054;-83
2022/09/04 08:49:22;;;;;;;4.32;2.70;;;21.10;91.60;;;;;;5113729;28;20059;-81
2022/09/04 08:52:17;;;;;;;4.60;2.80;;;21.20;91.60;;;;;;5124532;27;20043;-81
2022/09/04 08:54:57;;;;;;;3.85;2.70;;;21.30;91.50;;;;;;5107299;28;20043;-82
2022/09/04 08:57:52;;;;;;;4.82;2.40;;;21.40;91.60;;;;;;5107448;28;20106;-80
2022/09/04 09:00:19;;;;;;;5.43;2.40;;;21.50;91.30;;;;;;5107101;28;20039;-81
2022/09/04 09:03:03;;;;;;;5.30;2.33;;;21.50;91.50;;;;;;5111734;28;20393;-80
2022/09/04 09:06:18;;;;;;;4.18;2.40;;;21.60;91.50;;;;;;5116526;28;20031;-79
2022/09/04 09:09:05;;;;;;;5.00;2.45;;;21.70;91.50;;;;;;5106683;28;20035;-79
2022/09/04 09:12:03;;;;;;;3.15;2.25;;;21.80;91.40;;;;;;5105378;28;20064;-79
2022/09/04 09:14:58;;;;;;;5.72;2.20;;;21.80;91.30;;;;;;5108810;28;20550;-79
2022/09/04 09:18:00;;;;;;;3.97;2.20;;;21.90;91.30;;;;;;5105707;28;20040;-78
2022/09/04 09:20:27;;;;;;;5.15;2.25;;;21.80;91.00;;;;;;5049334;28;20059;-80
2022/09/04 09:23:54;;;;;;;3.67;2.10;;;21.90;91.20;;;;;;5101406;28;20051;-80
2022/09/04 09:26:28;;;;;;;3.90;2.00;;;22.00;91.40;;;;;;5028208;28;20055;-80
2022/09/04 09:29:17;;;;;;;3.92;2.10;;;22.00;91.10;;;;;;5112711;28;20028;-82
2022/09/04 09:32:01;;;;;;;6.10;2.08;;;22.10;91.10;;;;;;5110021;28;20089;-80
2022/09/04 09:34:57;;;;;;;3.78;2.30;;;22.20;91.00;;;;;;5113205;28;20045;-80
2022/09/04 09:37:58;;;;;;;5.88;1.90;;;22.30;90.90;;;;;;5114684;28;20089;-80
2022/09/04 09:40:47;;;;;;;6.43;2.47;;;22.40;91.10;;;;;;5095560;28;20096;-82
2022/09/04 09:43:49;;;;;;;5.40;2.20;;;22.50;91.10;;;;;;5104165;28;20092;-80
2022/09/04 09:46:46;;;;;;;3.88;2.17;;;22.60;91.10;;;;;;5092552;28;20047;-81
2022/09/04 09:49:35;;;;;;;3.50;2.17;;;22.70;90.80;;;;;;5101960;28;20119;-80
2022/09/04 09:52:19;;;;;;;3.58;2.17;;;22.70;90.80;;;;;;5092967;28;20138;-80
2022/09/04 09:55:18;;;;;;;6.25;1.73;;;22.80;90.80;;;;;;5092985;28;20555;-81
2022/09/04 09:58:21;;;;;;;3.45;1.90;;;22.90;91.00;;;;;;5098223;28;20480;-80
2022/09/04 10:01:13;;;;;;;5.20;1.83;;;23.00;90.50;;;;;;5108624;28;20094;-80
2022/09/04 10:03:46;;;;;;;2.78;1.88;;;23.20;90.40;;;;;;5116018;28;20039;-77
2022/09/04 10:06:43;;;;;;;6.72;1.75;;;23.30;90.30;;;;;;5102492;28;20044;-81
2022/09/04 10:09:14;;;;;;;2.90;1.60;;;23.40;90.20;;;;;;5116223;28;20031;-79
2022/09/04 10:12:06;;;;;;;5.32;1.95;;;23.40;89.90;;;;;;5111833;28;20036;-79
2022/09/04 10:15:03;;;;;;;5.53;1.60;;;23.50;90.10;;;;;;5108903;28;20044;-81
2022/09/04 10:18:03;;;;;;;7.80;1.70;;;23.80;90.00;;;;;;5091310;28;20126;-79
2022/09/04 10:20:45;;;;;;;4.13;1.70;;;23.90;89.30;;;;;;5097053;28;20176;-80
2022/09/04 10:23:28;;;;;;;2.38;1.50;;;24.00;87.60;;;;;;5109979;28;20054;-80
2022/09/04 10:26:18;;;;;;;3.08;1.80;;;24.10;88.20;;;;;;5116372;28;20078;-79
2022/09/04 10:28:58;;;;;;;2.17;1.50;;;24.10;86.50;;;;;;5117040;28;20031;-81
2022/09/04 10:31:37;;;;;;;2.78;1.60;;;24.20;87.90;;;;;;5103114;28;20039;-80
2022/09/04 10:34:37;;;;;;;4.68;1.80;;;24.30;87.70;;;;;;5096263;28;20035;-81
2022/09/04 10:37:40;;;;;;;4.28;1.70;;;24.30;87.10;;;;;;5124240;27;20079;-80
2022/09/04 10:40:39;;;;;;;3.90;1.52;;;24.40;87.20;;;;;;5096286;28;20382;-80
2022/09/04 10:43:16;;;;;;;6.68;1.73;;;24.40;87.60;;;;;;5093908;28;20040;-79
2022/09/04 10:45:45;;;;;;;2.75;1.48;;;24.60;87.40;;;;;;5094253;28;20259;-80
2022/09/04 10:48:31;;;;;;;3.13;1.58;;;24.70;87.00;;;;;;5093852;28;20488;-82
2022/09/04 10:51:21;;;;;;;4.13;1.60;;;24.80;86.80;;;;;;5108727;28;20039;-82
2022/09/04 10:54:30;;;;;;;8.75;1.90;;;24.90;86.50;;;;;;5075990;28;20044;-79
2022/09/04 10:56:58;;;;;;;2.70;1.70;;;25.00;86.20;;;;;;5078073;28;20036;-79
2022/09/04 11:00:06;;;;;;;2.85;1.50;;;25.00;86.00;;;;;;5096452;28;20036;-81
2022/09/04 11:03:13;;;;;;;2.47;1.70;;;25.00;85.90;;;;;;5070607;28;20060;-81
2022/09/04 11:06:01;;;;;;;2.70;1.55;;;25.10;83.70;;;;;;5111891;28;20036;-81
2022/09/04 11:09:03;;;;;;;5.00;1.45;;;25.20;85.00;;;;;;5111445;28;20040;-80
2022/09/04 11:11:51;;;;;;;5.20;1.85;;;25.40;85.50;;;;;;5106987;28;20513;-80
2022/09/04 11:14:38;;;;;;;2.97;1.40;;;25.60;85.10;;;;;;5110901;28;20073;-80
2022/09/04 11:17:07;;;;;;;2.80;1.40;;;25.80;84.50;;;;;;5095719;28;20032;-79
2022/09/04 11:19:51;;;;;;;3.83;1.80;;;25.80;83.20;;;;;;5105322;28;20088;-80
2022/09/04 11:22:35;;;;;;;2.55;1.60;;;26.00;83.90;;;;;;5112071;28;20096;-80
2022/09/04 11:25:28;;;;;;;4.57;1.63;;;26.00;83.60;;;;;;5081406;28;20036;-80
2022/09/04 11:28:09;;;;;;;3.17;1.45;;;26.20;82.90;;;;;;5095808;28;20406;-79
2022/09/04 11:30:54;;;;;;;3.97;1.50;;;26.30;82.70;;;;;;5096168;28;20405;-80
2022/09/04 11:33:21;;;;;;;2.40;1.45;;;26.40;82.30;;;;;;5106557;28;20046;-80
2022/09/04 11:36:17;;;;;;;2.47;1.38;;;26.50;81.80;;;;;;5107833;28;20468;-78
2022/09/04 11:39:14;;;;;;;2.65;1.40;;;26.80;82.60;;;;;;5094534;28;20572;-79
2022/09/04 11:42:06;;;;;;;5.05;1.55;;;27.00;82.30;;;;;;5094493;28;20040;-79
2022/09/04 11:45:06;;;;;;;3.70;1.60;;;27.10;81.00;;;;;;5093605;28;20051;-80
2022/09/04 11:47:58;;;;;;;2.45;1.50;;;27.00;81.00;;;;;;5095929;28;20404;-80
2022/09/04 11:51:03;;;;;;;4.05;1.58;;;27.00;81.30;;;;;;5089599;28;20044;-80
2022/09/04 11:53:38;;;;;;;3.40;1.40;;;27.00;81.10;;;;;;5100690;28;20040;-80
2022/09/04 11:56:27;;;;;;;2.75;1.45;;;26.90;81.20;;;;;;5094373;28;20043;-80
2022/09/04 11:59:22;;;;;;;4.00;1.40;;;27.00;80.60;;;;;;5095985;28;20375;-78
2022/09/04 12:02:16;;;;;;;4.97;1.50;;;27.20;81.90;;;;;;5105261;28;20039;-79
2022/09/04 12:05:03;;;;;;;2.67;1.40;;;27.40;81.70;;;;;;5110237;28;20043;-80
2022/09/04 12:07:41;;;;;;;4.10;1.67;;;27.60;81.70;;;;;;5106994;28;20051;-81
2022/09/04 12:10:25;;;;;;;4.15;1.50;;;27.80;80.90;;;;;;5087222;28;20373;-81
2022/09/04 12:13:13;;;;;;;3.75;1.58;;;27.90;80.40;;;;;;5109241;28;20400;-80
2022/09/04 12:15:39;;;;;;;4.15;1.70;;;28.10;80.30;;;;;;5094219;28;20048;-82
2022/09/04 12:18:43;;;;;;;3.72;1.50;;;28.20;80.40;;;;;;5094572;28;20051;-81
2022/09/04 12:21:31;;;;;;;4.05;1.40;;;28.10;80.70;;;;;;5085065;28;20067;-80
2022/09/04 12:24:33;;;;;;;2.70;1.50;;;28.00;80.50;;;;;;5083740;28;20034;-79
2022/09/04 12:27:38;;;;;;;2.00;1.60;;;28.00;80.90;;;;;;5122228;27;20036;-80
2022/09/04 12:30:24;;;;;;;1.98;1.40;;;27.90;80.70;;;;;;5105823;28;20413;-80
2022/09/04 12:33:01;;;;;;;3.42;1.50;;;27.90;80.30;;;;;;5099545;28;20050;-80
2022/09/04 12:35:47;;;;;;;2.30;1.60;;;27.90;80.30;;;;;;5094379;28;20096;-79
2022/09/04 12:38:51;;;;;;;2.45;1.55;;;28.30;80.50;;;;;;5104384;28;20035;-80
2022/09/04 12:41:54;;;;;;;3.55;1.50;;;28.50;80.40;;;;;;5103262;28;20035;-79
2022/09/04 12:44:41;;;;;;;4.80;1.38;;;28.80;80.20;;;;;;5079726;28;20036;-79
2022/09/04 12:47:20;;;;;;;5.20;1.45;;;29.00;79.80;;;;;;5075508;28;20599;-79
2022/09/04 12:50:15;;;;;;;2.83;1.65;;;29.20;79.30;;;;;;5093387;28;20040;-79
2022/09/04 12:52:49;;;;;;;3.20;1.40;;;29.40;78.70;;;;;;5084746;28;20040;-80
2022/09/04 12:55:57;;;;;;;3.38;1.52;;;29.50;78.30;;;;;;5102900;28;20509;-79
2022/09/04 12:58:41;;;;;;;2.50;1.40;;;29.80;79.00;;;;;;5092792;28;20149;-80
2022/09/04 13:01:18;;;;;;;4.97;1.60;;;29.80;77.60;;;;;;5094048;28;20040;-80
2022/09/04 13:04:13;;;;;;;2.08;1.40;;;29.80;77.70;;;;;;5081586;28;20118;-79
2022/09/04 13:06:47;;;;;;;3.10;1.50;;;29.80;77.50;;;;;;5101545;28;20036;-80
2022/09/04 13:09:24;;;;;;;2.47;1.45;;;29.70;77.30;;;;;;5092518;28;20406;-80
2022/09/04 13:12:08;;;;;;;4.38;1.35;;;29.70;76.60;;;;;;5102390;28;20040;-79
2022/09/04 13:14:43;;;;;;;2.25;1.40;;;29.70;77.30;;;;;;5085354;28;20048;-79
2022/09/04 13:17:53;;;;;;;2.67;1.30;;;29.70;77.30;;;;;;5091904;28;20035;-80
2022/09/04 13:20:55;;;;;;;3.00;1.30;;;29.90;77.80;;;;;;5071871;28;20040;-79
2022/09/04 13:23:34;;;;;;;1.85;1.25;;;29.80;75.60;;;;;;5099618;28;20040;-80
2022/09/04 13:26:23;;;;;;;1.83;1.25;;;29.80;75.80;;;;;;5095395;28;20040;-80
2022/09/04 13:29:20;;;;;;;4.68;1.35;;;29.80;75.90;;;;;;5092701;28;20070;-80
2022/09/04 13:32:06;;;;;;;1.95;1.20;;;29.80;75.60;;;;;;5080176;28;20043;-79
2022/09/04 13:34:50;;;;;;;2.00;1.45;;;29.90;75.60;;;;;;5101785;28;20420;-78
2022/09/04 13:37:56;;;;;;;4.82;1.02;;;30.00;76.30;;;;;;5102495;28;20037;-79
2022/09/04 13:40:43;;;;;;;9.98;1.67;;;30.10;76.80;;;;;;5106097;28;20043;-78
2022/09/04 13:43:23;;;;;;;2.17;1.35;;;30.10;76.20;;;;;;5112775;28;20092;-80
2022/09/04 13:46:03;;;;;;;3.05;1.40;;;30.20;76.30;;;;;;5095507;28;20032;-79
2022/09/04 13:48:39;;;;;;;2.35;1.17;;;30.20;75.90;;;;;;5086429;28;20031;-80
2022/09/04 13:51:29;;;;;;;3.58;1.40;;;30.20;75.50;;;;;;5099457;28;20085;-79
2022/09/04 13:54:24;;;;;;;3.40;1.30;;;30.20;75.80;;;;;;5103918;28;20036;-79
2022/09/04 13:57:12;;;;;;;7.53;1.60;;;30.10;75.40;;;;;;5098482;28;20043;-79
2022/09/04 13:59:41;;;;;;;2.00;1.23;;;29.90;75.50;;;;;;5087235;28;20075;-79
2022/09/04 14:02:13;;;;;;;1.98;1.63;;;29.90;75.30;;;;;;5100574;28;20100;-79
2022/09/04 14:04:46;;;;;;;3.78;1.10;;;29.90;76.00;;;;;;5086477;28;20032;-79
2022/09/04 14:07:30;;;;;;;2.67;1.25;;;30.10;76.50;;;;;;5098895;28;20092;-79
2022/09/04 14:09:58;;;;;;;;;;;30.10;75.50;;;;;;5096410;28;20047;-79
2022/09/04 14:12:45;;;;;;;1.83;1.30;;;29.90;75.30;;;;;;5106980;28;19919;-79
2022/09/04 14:15:39;;;;;;;7.63;1.20;;;30.20;76.00;;;;;;5097304;28;20036;-79
2022/09/04 14:18:37;;;;;;;3.10;1.40;;;30.30;75.60;;;;;;5099997;28;20036;-79
2022/09/04 14:21:12;;;;;;;6.35;1.60;;;30.40;75.70;;;;;;5091659;28;20135;-80
2022/09/04 14:23:59;;;;;;;2.13;1.45;;;30.60;75.40;;;;;;5099601;28;20066;-81
2022/09/04 14:26:42;;;;;;;3.67;1.10;;;30.70;75.40;;;;;;5085412;28;20046;-80